sensor_id;sensor_type;location;lat;lon;timestamp;P1;durP1;ratioP1;P2;durP2;ratioP2
17686;SDS011;8962;52.538;13.266;2023-04-08T00:01:56;22.55;;;13.93;;
17686;SDS011;8962;52.538;13.266;2023-04-08T00:04:24;22.38;;;14.43;;
17686;SDS011;8962;52.538;13.266;2023-04-08T00:06:53;23.30;;;14.98;;
17686;SDS011;8962;52.538;13.266;2023-04-08T00:09:20;22.80;;;14.05;;
17686;SDS011;8962;52.538;13.266;2023-04-08T00:11:48;24.80;;;14.85;;
17686;SDS011;8962;52.538;13.266;2023-04-08T00:14:15;26.10;;;15.40;;
17686;SDS011;8962;52.538;13.266;2023-04-08T00:16:42;22.83;;;14.70;;
17686;SDS011;8962;52.538;13.266;2023-04-08T00:19:09;28.20;;;16.55;;
17686;SDS011;8962;52.538;13.266;2023-04-08T00:21:38;25.40;;;15.73;;
17686;SDS011;8962;52.538;13.266;2023-04-08T00:24:08;27.42;;;16.08;;
17686;SDS011;8962;52.538;13.266;2023-04-08T00:26:35;29.35;;;16.83;;
17686;SDS011;8962;52.538;13.266;2023-04-08T00:29:03;30.80;;;17.80;;
17686;SDS011;8962;52.538;13.266;2023-04-08T00:31:31;30.08;;;17.27;;
17686;SDS011;8962;52.538;13.266;2023-04-08T00:33:58;31.55;;;17.48;;
17686;SDS011;8962;52.538;13.266;2023-04-08T00:36:25;31.58;;;18.45;;
17686;SDS011;8962;52.538;13.266;2023-04-08T00:38:54;35.05;;;18.75;;
17686;SDS011;8962;52.538;13.266;2023-04-08T00:41:24;33.45;;;18.30;;
17686;SDS011;8962;52.538;13.266;2023-04-08T00:43:51;35.38;;;19.58;;
17686;SDS011;8962;52.538;13.266;2023-04-08T00:46:19;34.90;;;19.75;;
17686;SDS011;8962;52.538;13.266;2023-04-08T00:48:47;32.97;;;19.42;;
17686;SDS011;8962;52.538;13.266;2023-04-08T00:51:15;36.40;;;19.85;;
17686;SDS011;8962;52.538;13.266;2023-04-08T00:53:43;38.20;;;20.00;;
17686;SDS011;8962;52.538;13.266;2023-04-08T00:56:10;38.75;;;20.55;;
17686;SDS011;8962;52.538;13.266;2023-04-08T00:58:39;40.47;;;21.63;;
17686;SDS011;8962;52.538;13.266;2023-04-08T01:01:08;41.65;;;20.80;;
17686;SDS011;8962;52.538;13.266;2023-04-08T01:03:41;41.35;;;22.10;;
17686;SDS011;8962;52.538;13.266;2023-04-08T01:06:14;40.78;;;21.75;;
17686;SDS011;8962;52.538;13.266;2023-04-08T01:08:49;42.80;;;22.15;;
17686;SDS011;8962;52.538;13.266;2023-04-08T01:11:18;44.20;;;22.30;;
17686;SDS011;8962;52.538;13.266;2023-04-08T01:13:48;42.92;;;22.55;;
17686;SDS011;8962;52.538;13.266;2023-04-08T01:16:16;39.20;;;21.83;;
17686;SDS011;8962;52.538;13.266;2023-04-08T01:18:46;47.38;;;21.90;;
17686;SDS011;8962;52.538;13.266;2023-04-08T01:21:18;41.30;;;21.52;;
17686;SDS011;8962;52.538;13.266;2023-04-08T01:23:51;43.65;;;22.75;;
17686;SDS011;8962;52.538;13.266;2023-04-08T01:26:27;43.17;;;22.25;;
17686;SDS011;8962;52.538;13.266;2023-04-08T01:28:56;49.40;;;23.60;;
17686;SDS011;8962;52.538;13.266;2023-04-08T01:31:27;48.63;;;24.25;;
17686;SDS011;8962;52.538;13.266;2023-04-08T01:33:56;48.13;;;23.13;;
17686;SDS011;8962;52.538;13.266;2023-04-08T01:36:27;41.55;;;21.05;;
17686;SDS011;8962;52.538;13.266;2023-04-08T01:38:56;48.60;;;24.45;;
17686;SDS011;8962;52.538;13.266;2023-04-08T01:41:25;48.60;;;24.10;;
17686;SDS011;8962;52.538;13.266;2023-04-08T01:43:56;47.72;;;23.70;;
17686;SDS011;8962;52.538;13.266;2023-04-08T01:46:25;48.53;;;23.45;;
17686;SDS011;8962;52.538;13.266;2023-04-08T01:48:54;45.28;;;23.35;;
17686;SDS011;8962;52.538;13.266;2023-04-08T01:51:22;50.13;;;24.42;;
17686;SDS011;8962;52.538;13.266;2023-04-08T01:53:56;51.55;;;24.30;;
17686;SDS011;8962;52.538;13.266;2023-04-08T01:56:23;53.05;;;25.70;;
17686;SDS011;8962;52.538;13.266;2023-04-08T01:59:01;51.30;;;25.00;;
17686;SDS011;8962;52.538;13.266;2023-04-08T02:01:35;51.80;;;24.77;;
17686;SDS011;8962;52.538;13.266;2023-04-08T02:04:04;49.45;;;23.48;;
17686;SDS011;8962;52.538;13.266;2023-04-08T02:06:31;46.72;;;23.90;;
17686;SDS011;8962;52.538;13.266;2023-04-08T02:09:01;47.88;;;23.83;;
17686;SDS011;8962;52.538;13.266;2023-04-08T02:11:31;47.67;;;23.58;;
17686;SDS011;8962;52.538;13.266;2023-04-08T02:13:58;45.72;;;23.02;;
17686;SDS011;8962;52.538;13.266;2023-04-08T02:16:28;46.65;;;22.63;;
17686;SDS011;8962;52.538;13.266;2023-04-08T02:18:59;51.10;;;23.25;;
17686;SDS011;8962;52.538;13.266;2023-04-08T02:21:42;42.88;;;22.48;;
17686;SDS011;8962;52.538;13.266;2023-04-08T02:24:13;45.65;;;23.13;;
17686;SDS011;8962;52.538;13.266;2023-04-08T02:26:46;50.30;;;23.17;;
17686;SDS011;8962;52.538;13.266;2023-04-08T02:29:18;47.35;;;22.35;;
17686;SDS011;8962;52.538;13.266;2023-04-08T02:31:50;51.17;;;23.70;;
17686;SDS011;8962;52.538;13.266;2023-04-08T02:34:22;46.72;;;23.05;;
17686;SDS011;8962;52.538;13.266;2023-04-08T02:36:50;48.13;;;23.50;;
17686;SDS011;8962;52.538;13.266;2023-04-08T02:39:19;48.28;;;23.58;;
17686;SDS011;8962;52.538;13.266;2023-04-08T02:41:49;49.40;;;24.33;;
17686;SDS011;8962;52.538;13.266;2023-04-08T02:44:20;43.22;;;22.60;;
17686;SDS011;8962;52.538;13.266;2023-04-08T02:46:48;48.50;;;23.02;;
17686;SDS011;8962;52.538;13.266;2023-04-08T02:49:16;50.05;;;23.90;;
17686;SDS011;8962;52.538;13.266;2023-04-08T02:51:43;46.75;;;22.38;;
17686;SDS011;8962;52.538;13.266;2023-04-08T02:54:11;49.40;;;22.95;;
17686;SDS011;8962;52.538;13.266;2023-04-08T02:56:39;47.90;;;23.17;;
17686;SDS011;8962;52.538;13.266;2023-04-08T02:59:08;52.55;;;23.63;;
17686;SDS011;8962;52.538;13.266;2023-04-08T03:01:35;51.90;;;23.58;;
17686;SDS011;8962;52.538;13.266;2023-04-08T03:04:02;52.05;;;22.98;;
17686;SDS011;8962;52.538;13.266;2023-04-08T03:06:30;53.80;;;24.20;;
17686;SDS011;8962;52.538;13.266;2023-04-08T03:08:59;49.65;;;23.42;;
17686;SDS011;8962;52.538;13.266;2023-04-08T03:11:27;53.83;;;23.80;;
17686;SDS011;8962;52.538;13.266;2023-04-08T03:13:54;51.85;;;24.65;;
17686;SDS011;8962;52.538;13.266;2023-04-08T03:16:23;48.75;;;23.55;;
17686;SDS011;8962;52.538;13.266;2023-04-08T03:18:51;49.78;;;23.25;;
17686;SDS011;8962;52.538;13.266;2023-04-08T03:21:19;44.67;;;23.38;;
17686;SDS011;8962;52.538;13.266;2023-04-08T03:23:46;51.35;;;24.33;;
17686;SDS011;8962;52.538;13.266;2023-04-08T03:26:15;53.22;;;25.38;;
17686;SDS011;8962;52.538;13.266;2023-04-08T03:28:42;51.67;;;23.90;;
17686;SDS011;8962;52.538;13.266;2023-04-08T03:31:13;57.25;;;25.95;;
17686;SDS011;8962;52.538;13.266;2023-04-08T03:33:43;52.67;;;23.92;;
17686;SDS011;8962;52.538;13.266;2023-04-08T03:36:11;49.67;;;24.45;;
17686;SDS011;8962;52.538;13.266;2023-04-08T03:38:41;49.38;;;24.70;;
17686;SDS011;8962;52.538;13.266;2023-04-08T03:41:10;56.00;;;25.55;;
17686;SDS011;8962;52.538;13.266;2023-04-08T03:43:37;54.13;;;24.33;;
17686;SDS011;8962;52.538;13.266;2023-04-08T03:46:07;55.55;;;25.88;;
17686;SDS011;8962;52.538;13.266;2023-04-08T03:48:34;51.97;;;25.23;;
17686;SDS011;8962;52.538;13.266;2023-04-08T03:51:02;57.92;;;26.35;;
17686;SDS011;8962;52.538;13.266;2023-04-08T03:53:29;54.60;;;25.10;;
17686;SDS011;8962;52.538;13.266;2023-04-08T03:55:56;53.25;;;25.35;;
17686;SDS011;8962;52.538;13.266;2023-04-08T03:58:25;60.20;;;25.48;;
17686;SDS011;8962;52.538;13.266;2023-04-08T04:00:52;54.97;;;24.98;;
17686;SDS011;8962;52.538;13.266;2023-04-08T04:03:23;54.28;;;25.52;;
17686;SDS011;8962;52.538;13.266;2023-04-08T04:05:50;58.38;;;25.95;;
17686;SDS011;8962;52.538;13.266;2023-04-08T04:08:19;53.53;;;25.10;;
17686;SDS011;8962;52.538;13.266;2023-04-08T04:10:46;52.60;;;24.52;;
17686;SDS011;8962;52.538;13.266;2023-04-08T04:13:13;58.15;;;26.55;;
17686;SDS011;8962;52.538;13.266;2023-04-08T04:15:40;59.53;;;25.65;;
17686;SDS011;8962;52.538;13.266;2023-04-08T04:18:07;58.10;;;27.20;;
17686;SDS011;8962;52.538;13.266;2023-04-08T04:20:34;55.53;;;25.27;;
17686;SDS011;8962;52.538;13.266;2023-04-08T04:23:04;60.75;;;26.88;;
17686;SDS011;8962;52.538;13.266;2023-04-08T04:25:33;57.63;;;26.48;;
17686;SDS011;8962;52.538;13.266;2023-04-08T04:28:00;56.60;;;25.80;;
17686;SDS011;8962;52.538;13.266;2023-04-08T04:30:28;63.53;;;26.50;;
17686;SDS011;8962;52.538;13.266;2023-04-08T04:32:55;60.65;;;27.00;;
17686;SDS011;8962;52.538;13.266;2023-04-08T04:35:22;58.80;;;26.50;;
17686;SDS011;8962;52.538;13.266;2023-04-08T04:37:49;57.20;;;26.45;;
17686;SDS011;8962;52.538;13.266;2023-04-08T04:40:17;58.88;;;26.75;;
17686;SDS011;8962;52.538;13.266;2023-04-08T04:42:46;60.33;;;26.45;;
17686;SDS011;8962;52.538;13.266;2023-04-08T04:45:13;57.33;;;25.88;;
17686;SDS011;8962;52.538;13.266;2023-04-08T04:47:40;60.53;;;27.02;;
17686;SDS011;8962;52.538;13.266;2023-04-08T04:50:07;62.80;;;26.25;;
17686;SDS011;8962;52.538;13.266;2023-04-08T04:52:35;56.63;;;26.15;;
17686;SDS011;8962;52.538;13.266;2023-04-08T04:55:02;57.42;;;25.30;;
17686;SDS011;8962;52.538;13.266;2023-04-08T04:57:30;56.90;;;25.38;;
17686;SDS011;8962;52.538;13.266;2023-04-08T04:59:59;52.95;;;25.25;;
17686;SDS011;8962;52.538;13.266;2023-04-08T05:02:26;54.58;;;26.13;;
17686;SDS011;8962;52.538;13.266;2023-04-08T05:04:53;53.47;;;26.45;;
17686;SDS011;8962;52.538;13.266;2023-04-08T05:07:20;52.08;;;25.42;;
17686;SDS011;8962;52.538;13.266;2023-04-08T05:09:47;56.35;;;26.10;;
17686;SDS011;8962;52.538;13.266;2023-04-08T05:12:14;58.55;;;26.67;;
17686;SDS011;8962;52.538;13.266;2023-04-08T05:14:44;51.75;;;24.38;;
17686;SDS011;8962;52.538;13.266;2023-04-08T05:17:13;50.50;;;25.23;;
17686;SDS011;8962;52.538;13.266;2023-04-08T05:19:41;54.17;;;26.63;;
17686;SDS011;8962;52.538;13.266;2023-04-08T05:22:09;50.88;;;24.48;;
17686;SDS011;8962;52.538;13.266;2023-04-08T05:24:36;51.60;;;27.05;;
17686;SDS011;8962;52.538;13.266;2023-04-08T05:27:03;52.00;;;26.25;;
17686;SDS011;8962;52.538;13.266;2023-04-08T05:29:30;55.00;;;26.15;;
17686;SDS011;8962;52.538;13.266;2023-04-08T05:31:57;54.55;;;26.10;;
17686;SDS011;8962;52.538;13.266;2023-04-08T05:34:26;56.75;;;26.98;;
17686;SDS011;8962;52.538;13.266;2023-04-08T05:36:53;52.95;;;26.73;;
17686;SDS011;8962;52.538;13.266;2023-04-08T05:39:20;50.28;;;26.25;;
17686;SDS011;8962;52.538;13.266;2023-04-08T05:41:48;54.00;;;26.33;;
17686;SDS011;8962;52.538;13.266;2023-04-08T05:44:15;55.97;;;25.52;;
17686;SDS011;8962;52.538;13.266;2023-04-08T05:46:43;56.42;;;26.98;;
17686;SDS011;8962;52.538;13.266;2023-04-08T05:49:10;51.40;;;25.48;;
17686;SDS011;8962;52.538;13.266;2023-04-08T05:51:39;57.20;;;26.13;;
17686;SDS011;8962;52.538;13.266;2023-04-08T05:54:06;51.80;;;26.30;;
17686;SDS011;8962;52.538;13.266;2023-04-08T05:56:33;51.28;;;26.90;;
17686;SDS011;8962;52.538;13.266;2023-04-08T05:59:00;48.05;;;24.33;;
17686;SDS011;8962;52.538;13.266;2023-04-08T06:01:27;51.00;;;25.75;;
17686;SDS011;8962;52.538;13.266;2023-04-08T06:03:54;51.67;;;25.48;;
17686;SDS011;8962;52.538;13.266;2023-04-08T06:06:22;48.05;;;25.90;;
17686;SDS011;8962;52.538;13.266;2023-04-08T06:08:51;51.50;;;26.17;;
17686;SDS011;8962;52.538;13.266;2023-04-08T06:11:18;54.50;;;26.15;;
17686;SDS011;8962;52.538;13.266;2023-04-08T06:13:45;54.28;;;27.52;;
17686;SDS011;8962;52.538;13.266;2023-04-08T06:16:13;53.20;;;26.58;;
17686;SDS011;8962;52.538;13.266;2023-04-08T06:18:41;53.28;;;26.13;;
17686;SDS011;8962;52.538;13.266;2023-04-08T06:21:09;52.80;;;26.48;;
17686;SDS011;8962;52.538;13.266;2023-04-08T06:23:36;54.17;;;27.17;;
17686;SDS011;8962;52.538;13.266;2023-04-08T06:26:05;53.90;;;26.92;;
17686;SDS011;8962;52.538;13.266;2023-04-08T06:28:32;48.45;;;25.73;;
17686;SDS011;8962;52.538;13.266;2023-04-08T06:30:59;51.70;;;25.48;;
17686;SDS011;8962;52.538;13.266;2023-04-08T06:33:26;53.65;;;27.35;;
17686;SDS011;8962;52.538;13.266;2023-04-08T06:36:00;54.42;;;26.85;;
17686;SDS011;8962;52.538;13.266;2023-04-08T06:38:28;52.55;;;25.95;;
17686;SDS011;8962;52.538;13.266;2023-04-08T06:40:56;51.38;;;26.55;;
17686;SDS011;8962;52.538;13.266;2023-04-08T06:43:28;52.50;;;27.42;;
17686;SDS011;8962;52.538;13.266;2023-04-08T06:45:56;51.03;;;26.00;;
17686;SDS011;8962;52.538;13.266;2023-04-08T06:48:23;50.20;;;27.02;;
17686;SDS011;8962;52.538;13.266;2023-04-08T06:50:56;49.97;;;26.45;;
17686;SDS011;8962;52.538;13.266;2023-04-08T06:53:25;48.55;;;26.27;;
17686;SDS011;8962;52.538;13.266;2023-04-08T06:55:55;52.92;;;26.77;;
17686;SDS011;8962;52.538;13.266;2023-04-08T06:58:22;47.97;;;24.98;;
17686;SDS011;8962;52.538;13.266;2023-04-08T07:00:52;43.88;;;24.38;;
17686;SDS011;8962;52.538;13.266;2023-04-08T07:03:20;50.50;;;25.77;;
17686;SDS011;8962;52.538;13.266;2023-04-08T07:05:47;46.95;;;25.17;;
17686;SDS011;8962;52.538;13.266;2023-04-08T07:08:14;49.95;;;26.15;;
17686;SDS011;8962;52.538;13.266;2023-04-08T07:10:41;51.25;;;26.40;;
17686;SDS011;8962;52.538;13.266;2023-04-08T07:13:09;49.63;;;26.33;;
17686;SDS011;8962;52.538;13.266;2023-04-08T07:15:36;55.90;;;26.42;;
17686;SDS011;8962;52.538;13.266;2023-04-08T07:18:04;46.97;;;25.65;;
17686;SDS011;8962;52.538;13.266;2023-04-08T07:20:31;47.10;;;25.15;;
17686;SDS011;8962;52.538;13.266;2023-04-08T07:23:02;44.60;;;24.77;;
17686;SDS011;8962;52.538;13.266;2023-04-08T07:25:29;47.30;;;25.58;;
17686;SDS011;8962;52.538;13.266;2023-04-08T07:27:58;47.45;;;25.02;;
17686;SDS011;8962;52.538;13.266;2023-04-08T07:30:25;48.75;;;25.67;;
17686;SDS011;8962;52.538;13.266;2023-04-08T07:32:53;44.22;;;24.63;;
17686;SDS011;8962;52.538;13.266;2023-04-08T07:35:23;42.08;;;24.02;;
17686;SDS011;8962;52.538;13.266;2023-04-08T07:37:50;45.13;;;25.42;;
17686;SDS011;8962;52.538;13.266;2023-04-08T07:40:19;43.85;;;24.25;;
17686;SDS011;8962;52.538;13.266;2023-04-08T07:42:46;45.92;;;24.38;;
17686;SDS011;8962;52.538;13.266;2023-04-08T07:45:14;43.03;;;24.33;;
17686;SDS011;8962;52.538;13.266;2023-04-08T07:47:43;44.08;;;24.63;;
17686;SDS011;8962;52.538;13.266;2023-04-08T07:50:11;42.20;;;24.13;;
17686;SDS011;8962;52.538;13.266;2023-04-08T07:52:39;42.40;;;23.38;;
17686;SDS011;8962;52.538;13.266;2023-04-08T07:55:07;40.88;;;23.92;;
17686;SDS011;8962;52.538;13.266;2023-04-08T07:57:35;39.72;;;23.30;;
17686;SDS011;8962;52.538;13.266;2023-04-08T08:00:02;43.42;;;24.33;;
17686;SDS011;8962;52.538;13.266;2023-04-08T08:02:38;45.08;;;25.27;;
17686;SDS011;8962;52.538;13.266;2023-04-08T08:05:05;47.92;;;24.83;;
17686;SDS011;8962;52.538;13.266;2023-04-08T08:07:33;43.80;;;23.48;;
17686;SDS011;8962;52.538;13.266;2023-04-08T08:10:02;43.58;;;23.98;;
17686;SDS011;8962;52.538;13.266;2023-04-08T08:12:30;42.60;;;23.70;;
17686;SDS011;8962;52.538;13.266;2023-04-08T08:14:57;45.47;;;23.67;;
17686;SDS011;8962;52.538;13.266;2023-04-08T08:17:24;43.78;;;23.67;;
17686;SDS011;8962;52.538;13.266;2023-04-08T08:19:54;45.50;;;24.08;;
17686;SDS011;8962;52.538;13.266;2023-04-08T08:22:21;44.20;;;24.55;;
17686;SDS011;8962;52.538;13.266;2023-04-08T08:24:48;42.50;;;24.48;;
17686;SDS011;8962;52.538;13.266;2023-04-08T08:27:22;40.22;;;23.42;;
17686;SDS011;8962;52.538;13.266;2023-04-08T08:29:49;40.78;;;22.50;;
17686;SDS011;8962;52.538;13.266;2023-04-08T08:32:17;39.85;;;23.73;;
17686;SDS011;8962;52.538;13.266;2023-04-08T08:34:45;38.90;;;22.65;;
17686;SDS011;8962;52.538;13.266;2023-04-08T08:37:12;38.60;;;22.33;;
17686;SDS011;8962;52.538;13.266;2023-04-08T08:39:39;34.80;;;21.42;;
17686;SDS011;8962;52.538;13.266;2023-04-08T08:42:08;39.97;;;22.33;;
17686;SDS011;8962;52.538;13.266;2023-04-08T08:44:45;38.92;;;22.15;;
17686;SDS011;8962;52.538;13.266;2023-04-08T08:47:16;38.67;;;22.58;;
17686;SDS011;8962;52.538;13.266;2023-04-08T08:49:44;36.45;;;22.15;;
17686;SDS011;8962;52.538;13.266;2023-04-08T08:52:14;41.30;;;23.38;;
17686;SDS011;8962;52.538;13.266;2023-04-08T08:54:42;36.80;;;22.38;;
17686;SDS011;8962;52.538;13.266;2023-04-08T08:57:15;37.28;;;22.50;;
17686;SDS011;8962;52.538;13.266;2023-04-08T08:59:45;36.15;;;22.15;;
17686;SDS011;8962;52.538;13.266;2023-04-08T09:02:25;41.22;;;23.25;;
17686;SDS011;8962;52.538;13.266;2023-04-08T09:04:57;39.00;;;22.15;;
17686;SDS011;8962;52.538;13.266;2023-04-08T09:07:26;37.63;;;22.52;;
17686;SDS011;8962;52.538;13.266;2023-04-08T09:09:55;44.03;;;24.23;;
17686;SDS011;8962;52.538;13.266;2023-04-08T09:12:23;40.05;;;23.45;;
17686;SDS011;8962;52.538;13.266;2023-04-08T09:15:03;43.47;;;22.00;;
17686;SDS011;8962;52.538;13.266;2023-04-08T09:17:30;36.58;;;21.55;;
17686;SDS011;8962;52.538;13.266;2023-04-08T09:20:08;40.05;;;22.88;;
17686;SDS011;8962;52.538;13.266;2023-04-08T09:22:56;36.88;;;22.55;;
17686;SDS011;8962;52.538;13.266;2023-04-08T09:25:24;38.83;;;23.08;;
17686;SDS011;8962;52.538;13.266;2023-04-08T09:27:52;40.05;;;23.13;;
17686;SDS011;8962;52.538;13.266;2023-04-08T09:30:23;41.72;;;22.92;;
17686;SDS011;8962;52.538;13.266;2023-04-08T09:32:52;38.30;;;22.63;;
17686;SDS011;8962;52.538;13.266;2023-04-08T09:35:21;37.63;;;23.08;;
17686;SDS011;8962;52.538;13.266;2023-04-08T09:37:50;40.80;;;23.05;;
17686;SDS011;8962;52.538;13.266;2023-04-08T09:40:18;39.63;;;22.58;;
17686;SDS011;8962;52.538;13.266;2023-04-08T09:42:47;36.55;;;22.60;;
17686;SDS011;8962;52.538;13.266;2023-04-08T09:45:18;40.03;;;22.90;;
17686;SDS011;8962;52.538;13.266;2023-04-08T09:47:51;36.33;;;23.05;;
17686;SDS011;8962;52.538;13.266;2023-04-08T09:50:23;38.83;;;23.40;;
17686;SDS011;8962;52.538;13.266;2023-04-08T09:52:56;36.40;;;21.65;;
17686;SDS011;8962;52.538;13.266;2023-04-08T09:55:29;38.85;;;22.98;;
17686;SDS011;8962;52.538;13.266;2023-04-08T09:58:02;34.17;;;21.23;;
17686;SDS011;8962;52.538;13.266;2023-04-08T10:00:36;35.60;;;21.73;;
17686;SDS011;8962;52.538;13.266;2023-04-08T10:03:12;38.22;;;21.65;;
17686;SDS011;8962;52.538;13.266;2023-04-08T10:05:48;36.47;;;21.90;;
17686;SDS011;8962;52.538;13.266;2023-04-08T10:08:18;36.88;;;21.98;;
17686;SDS011;8962;52.538;13.266;2023-04-08T10:10:45;38.08;;;22.02;;
17686;SDS011;8962;52.538;13.266;2023-04-08T10:13:13;37.38;;;22.27;;
17686;SDS011;8962;52.538;13.266;2023-04-08T10:15:41;36.08;;;22.17;;
17686;SDS011;8962;52.538;13.266;2023-04-08T10:21:01;35.22;;;21.65;;
17686;SDS011;8962;52.538;13.266;2023-04-08T10:26:30;40.08;;;22.58;;
17686;SDS011;8962;52.538;13.266;2023-04-08T10:32:02;40.85;;;23.63;;
17686;SDS011;8962;52.538;13.266;2023-04-08T10:34:31;39.05;;;22.10;;
17686;SDS011;8962;52.538;13.266;2023-04-08T10:37:01;36.58;;;22.85;;
17686;SDS011;8962;52.538;13.266;2023-04-08T10:39:29;36.95;;;21.88;;
17686;SDS011;8962;52.538;13.266;2023-04-08T10:41:57;38.20;;;22.13;;
17686;SDS011;8962;52.538;13.266;2023-04-08T10:44:28;36.35;;;21.75;;
17686;SDS011;8962;52.538;13.266;2023-04-08T10:46:55;34.55;;;21.65;;
17686;SDS011;8962;52.538;13.266;2023-04-08T10:49:22;38.35;;;21.77;;
17686;SDS011;8962;52.538;13.266;2023-04-08T10:51:59;34.15;;;20.92;;
17686;SDS011;8962;52.538;13.266;2023-04-08T10:54:31;36.78;;;20.83;;
17686;SDS011;8962;52.538;13.266;2023-04-08T10:56:59;34.50;;;20.17;;
17686;SDS011;8962;52.538;13.266;2023-04-08T10:59:28;33.40;;;19.92;;
17686;SDS011;8962;52.538;13.266;2023-04-08T11:01:57;31.05;;;20.00;;
17686;SDS011;8962;52.538;13.266;2023-04-08T11:04:25;33.08;;;20.38;;
17686;SDS011;8962;52.538;13.266;2023-04-08T11:06:53;29.27;;;19.38;;
17686;SDS011;8962;52.538;13.266;2023-04-08T11:09:20;32.00;;;19.23;;
17686;SDS011;8962;52.538;13.266;2023-04-08T11:11:48;30.17;;;19.45;;
17686;SDS011;8962;52.538;13.266;2023-04-08T11:14:15;28.75;;;18.90;;
17686;SDS011;8962;52.538;13.266;2023-04-08T11:16:46;27.60;;;18.60;;
17686;SDS011;8962;52.538;13.266;2023-04-08T11:19:13;28.33;;;17.23;;
17686;SDS011;8962;52.538;13.266;2023-04-08T11:21:40;28.17;;;17.48;;
17686;SDS011;8962;52.538;13.266;2023-04-08T11:24:12;32.00;;;21.65;;
17686;SDS011;8962;52.538;13.266;2023-04-08T11:26:40;25.85;;;17.15;;
17686;SDS011;8962;52.538;13.266;2023-04-08T11:29:08;26.35;;;17.13;;
17686;SDS011;8962;52.538;13.266;2023-04-08T11:31:38;26.65;;;16.77;;
17686;SDS011;8962;52.538;13.266;2023-04-08T11:34:06;24.98;;;16.00;;
17686;SDS011;8962;52.538;13.266;2023-04-08T11:36:34;22.23;;;16.55;;
17686;SDS011;8962;52.538;13.266;2023-04-08T11:39:05;25.42;;;16.35;;
17686;SDS011;8962;52.538;13.266;2023-04-08T11:41:38;25.55;;;17.02;;
17686;SDS011;8962;52.538;13.266;2023-04-08T11:44:06;29.27;;;16.45;;
17686;SDS011;8962;52.538;13.266;2023-04-08T11:46:34;23.30;;;16.00;;
17686;SDS011;8962;52.538;13.266;2023-04-08T11:49:02;22.80;;;15.23;;
17686;SDS011;8962;52.538;13.266;2023-04-08T11:51:32;24.30;;;16.42;;
17686;SDS011;8962;52.538;13.266;2023-04-08T11:54:00;25.40;;;17.13;;
17686;SDS011;8962;52.538;13.266;2023-04-08T11:56:42;26.67;;;16.88;;
17686;SDS011;8962;52.538;13.266;2023-04-08T11:59:12;25.38;;;16.90;;
17686;SDS011;8962;52.538;13.266;2023-04-08T12:01:39;25.52;;;16.75;;
17686;SDS011;8962;52.538;13.266;2023-04-08T12:04:06;24.75;;;16.70;;
17686;SDS011;8962;52.538;13.266;2023-04-08T12:06:34;26.05;;;17.17;;
17686;SDS011;8962;52.538;13.266;2023-04-08T12:09:01;25.25;;;17.73;;
17686;SDS011;8962;52.538;13.266;2023-04-08T12:11:28;26.27;;;17.50;;
17686;SDS011;8962;52.538;13.266;2023-04-08T12:13:57;29.15;;;16.70;;
17686;SDS011;8962;52.538;13.266;2023-04-08T12:16:24;25.83;;;16.63;;
17686;SDS011;8962;52.538;13.266;2023-04-08T12:18:51;21.65;;;15.68;;
17686;SDS011;8962;52.538;13.266;2023-04-08T12:21:18;22.08;;;16.08;;
17686;SDS011;8962;52.538;13.266;2023-04-08T12:23:45;21.95;;;15.82;;
17686;SDS011;8962;52.538;13.266;2023-04-08T12:26:13;22.77;;;16.75;;
17686;SDS011;8962;52.538;13.266;2023-04-08T12:28:40;23.30;;;16.15;;
17686;SDS011;8962;52.538;13.266;2023-04-08T12:31:09;21.23;;;15.18;;
17686;SDS011;8962;52.538;13.266;2023-04-08T12:33:40;20.65;;;15.18;;
17686;SDS011;8962;52.538;13.266;2023-04-08T12:36:07;19.23;;;14.23;;
17686;SDS011;8962;52.538;13.266;2023-04-08T12:38:35;20.23;;;14.35;;
17686;SDS011;8962;52.538;13.266;2023-04-08T12:41:02;20.52;;;15.10;;
17686;SDS011;8962;52.538;13.266;2023-04-08T12:43:30;18.55;;;13.98;;
17686;SDS011;8962;52.538;13.266;2023-04-08T12:45:58;17.50;;;13.35;;
17686;SDS011;8962;52.538;13.266;2023-04-08T12:48:27;16.20;;;12.93;;
17686;SDS011;8962;52.538;13.266;2023-04-08T12:50:54;17.75;;;12.63;;
17686;SDS011;8962;52.538;13.266;2023-04-08T12:53:22;16.10;;;13.10;;
17686;SDS011;8962;52.538;13.266;2023-04-08T12:55:50;17.67;;;12.93;;
17686;SDS011;8962;52.538;13.266;2023-04-08T12:58:21;15.77;;;12.75;;
17686;SDS011;8962;52.538;13.266;2023-04-08T13:00:49;17.75;;;13.88;;
17686;SDS011;8962;52.538;13.266;2023-04-08T13:03:16;15.88;;;13.60;;
17686;SDS011;8962;52.538;13.266;2023-04-08T13:05:44;18.75;;;14.20;;
17686;SDS011;8962;52.538;13.266;2023-04-08T13:08:11;18.65;;;14.43;;
17686;SDS011;8962;52.538;13.266;2023-04-08T13:10:38;18.55;;;14.38;;
17686;SDS011;8962;52.538;13.266;2023-04-08T13:13:07;19.10;;;14.73;;
17686;SDS011;8962;52.538;13.266;2023-04-08T13:15:34;18.95;;;14.57;;
17686;SDS011;8962;52.538;13.266;2023-04-08T13:18:03;21.88;;;15.57;;
17686;SDS011;8962;52.538;13.266;2023-04-08T13:20:30;19.85;;;15.32;;
17686;SDS011;8962;52.538;13.266;2023-04-08T13:22:59;21.23;;;14.55;;
17686;SDS011;8962;52.538;13.266;2023-04-08T13:25:26;19.08;;;13.95;;
17686;SDS011;8962;52.538;13.266;2023-04-08T13:27:54;18.15;;;13.77;;
17686;SDS011;8962;52.538;13.266;2023-04-08T13:30:21;18.42;;;14.32;;
17686;SDS011;8962;52.538;13.266;2023-04-08T13:32:48;18.58;;;14.45;;
17686;SDS011;8962;52.538;13.266;2023-04-08T13:35:15;16.48;;;12.68;;
17686;SDS011;8962;52.538;13.266;2023-04-08T13:37:43;16.13;;;12.88;;
17686;SDS011;8962;52.538;13.266;2023-04-08T13:40:12;14.40;;;11.50;;
17686;SDS011;8962;52.538;13.266;2023-04-08T13:42:39;11.73;;;10.02;;
17686;SDS011;8962;52.538;13.266;2023-04-08T13:45:07;12.68;;;10.20;;
17686;SDS011;8962;52.538;13.266;2023-04-08T13:47:34;9.55;;;8.55;;
17686;SDS011;8962;52.538;13.266;2023-04-08T13:50:03;11.18;;;9.82;;
17686;SDS011;8962;52.538;13.266;2023-04-08T13:52:30;11.18;;;9.30;;
17686;SDS011;8962;52.538;13.266;2023-04-08T13:54:58;11.38;;;9.85;;
17686;SDS011;8962;52.538;13.266;2023-04-08T13:57:27;11.13;;;9.77;;
17686;SDS011;8962;52.538;13.266;2023-04-08T13:59:54;11.70;;;10.50;;
17686;SDS011;8962;52.538;13.266;2023-04-08T14:02:21;11.50;;;10.25;;
17686;SDS011;8962;52.538;13.266;2023-04-08T14:04:49;11.88;;;10.45;;
17686;SDS011;8962;52.538;13.266;2023-04-08T14:07:16;12.88;;;11.10;;
17686;SDS011;8962;52.538;13.266;2023-04-08T14:09:44;11.18;;;9.98;;
17686;SDS011;8962;52.538;13.266;2023-04-08T14:12:11;11.63;;;10.00;;
17686;SDS011;8962;52.538;13.266;2023-04-08T14:14:40;11.65;;;10.45;;
17686;SDS011;8962;52.538;13.266;2023-04-08T14:17:07;11.75;;;10.20;;
17686;SDS011;8962;52.538;13.266;2023-04-08T14:19:35;11.77;;;10.13;;
17686;SDS011;8962;52.538;13.266;2023-04-08T14:22:03;11.52;;;10.00;;
17686;SDS011;8962;52.538;13.266;2023-04-08T14:24:31;11.70;;;10.50;;
17686;SDS011;8962;52.538;13.266;2023-04-08T14:26:58;12.18;;;10.20;;
17686;SDS011;8962;52.538;13.266;2023-04-08T14:29:26;12.27;;;10.88;;
17686;SDS011;8962;52.538;13.266;2023-04-08T14:32:00;11.98;;;10.00;;
17686;SDS011;8962;52.538;13.266;2023-04-08T14:34:28;11.55;;;10.32;;
17686;SDS011;8962;52.538;13.266;2023-04-08T14:36:55;11.10;;;9.52;;
17686;SDS011;8962;52.538;13.266;2023-04-08T14:39:22;11.80;;;9.88;;